sensor_id;sensor_type;location;lat;lon;timestamp;P1;durP1;ratioP1;P2;durP2;ratioP2
30635;SDS011;17400;52.392;9.750;2022-10-16T00:01:35;4.10;;;2.08;;
30635;SDS011;17400;52.392;9.750;2022-10-16T00:04:03;3.53;;;1.00;;
30635;SDS011;17400;52.392;9.750;2022-10-16T00:06:31;1.17;;;0.80;;
30635;SDS011;17400;52.392;9.750;2022-10-16T00:09:00;0.90;;;0.77;;
30635;SDS011;17400;52.392;9.750;2022-10-16T00:11:29;1.85;;;0.70;;
30635;SDS011;17400;52.392;9.750;2022-10-16T00:13:59;1.35;;;0.68;;
30635;SDS011;17400;52.392;9.750;2022-10-16T00:16:28;1.80;;;1.10;;
30635;SDS011;17400;52.392;9.750;2022-10-16T00:18:56;0.70;;;0.47;;
30635;SDS011;17400;52.392;9.750;2022-10-16T00:21:25;1.88;;;0.85;;
30635;SDS011;17400;52.392;9.750;2022-10-16T00:23:55;2.22;;;0.55;;
30635;SDS011;17400;52.392;9.750;2022-10-16T00:26:27;3.67;;;0.80;;
30635;SDS011;17400;52.392;9.750;2022-10-16T00:28:56;1.10;;;0.55;;
30635;SDS011;17400;52.392;9.750;2022-10-16T00:31:25;2.47;;;0.88;;
30635;SDS011;17400;52.392;9.750;2022-10-16T00:33:53;1.27;;;0.68;;
30635;SDS011;17400;52.392;9.750;2022-10-16T00:36:22;0.63;;;0.63;;
30635;SDS011;17400;52.392;9.750;2022-10-16T00:38:51;0.70;;;0.55;;
30635;SDS011;17400;52.392;9.750;2022-10-16T00:41:21;0.75;;;0.50;;
30635;SDS011;17400;52.392;9.750;2022-10-16T00:43:52;3.00;;;0.60;;
30635;SDS011;17400;52.392;9.750;2022-10-16T00:46:22;1.58;;;0.75;;
30635;SDS011;17400;52.392;9.750;2022-10-16T00:48:52;1.55;;;0.68;;
30635;SDS011;17400;52.392;9.750;2022-10-16T00:51:28;0.90;;;0.65;;
30635;SDS011;17400;52.392;9.750;2022-10-16T00:53:59;2.58;;;0.80;;
30635;SDS011;17400;52.392;9.750;2022-10-16T00:56:27;1.67;;;0.90;;
30635;SDS011;17400;52.392;9.750;2022-10-16T00:58:56;2.20;;;0.68;;
30635;SDS011;17400;52.392;9.750;2022-10-16T01:01:25;1.20;;;0.80;;
30635;SDS011;17400;52.392;9.750;2022-10-16T01:03:53;1.52;;;0.80;;
30635;SDS011;17400;52.392;9.750;2022-10-16T01:06:22;1.10;;;0.77;;
30635;SDS011;17400;52.392;9.750;2022-10-16T01:08:56;0.90;;;0.80;;
30635;SDS011;17400;52.392;9.750;2022-10-16T01:11:36;1.50;;;0.80;;
30635;SDS011;17400;52.392;9.750;2022-10-16T01:14:11;1.20;;;0.77;;
30635;SDS011;17400;52.392;9.750;2022-10-16T01:16:45;2.67;;;1.15;;
30635;SDS011;17400;52.392;9.750;2022-10-16T01:19:20;1.40;;;0.68;;
30635;SDS011;17400;52.392;9.750;2022-10-16T01:21:58;2.67;;;1.05;;
30635;SDS011;17400;52.392;9.750;2022-10-16T01:24:31;1.65;;;0.90;;
30635;SDS011;17400;52.392;9.750;2022-10-16T01:27:10;2.28;;;1.20;;
30635;SDS011;17400;52.392;9.750;2022-10-16T01:29:42;1.73;;;1.00;;
30635;SDS011;17400;52.392;9.750;2022-10-16T01:32:16;1.67;;;1.10;;
30635;SDS011;17400;52.392;9.750;2022-10-16T01:34:48;2.58;;;1.05;;
30635;SDS011;17400;52.392;9.750;2022-10-16T01:37:20;2.08;;;1.33;;
30635;SDS011;17400;52.392;9.750;2022-10-16T01:39:58;3.35;;;1.25;;
30635;SDS011;17400;52.392;9.750;2022-10-16T01:42:30;2.70;;;1.65;;
30635;SDS011;17400;52.392;9.750;2022-10-16T01:45:02;3.85;;;1.58;;
30635;SDS011;17400;52.392;9.750;2022-10-16T01:47:34;3.95;;;1.92;;
30635;SDS011;17400;52.392;9.750;2022-10-16T01:50:03;3.45;;;1.75;;
30635;SDS011;17400;52.392;9.750;2022-10-16T01:52:34;3.70;;;1.65;;
30635;SDS011;17400;52.392;9.750;2022-10-16T01:55:05;3.50;;;1.83;;
30635;SDS011;17400;52.392;9.750;2022-10-16T01:57:37;3.55;;;1.67;;
30635;SDS011;17400;52.392;9.750;2022-10-16T02:00:09;2.92;;;1.23;;
30635;SDS011;17400;52.392;9.750;2022-10-16T02:02:39;3.13;;;1.40;;
30635;SDS011;17400;52.392;9.750;2022-10-16T02:05:14;3.00;;;1.17;;
30635;SDS011;17400;52.392;9.750;2022-10-16T02:07:47;2.75;;;1.48;;
30635;SDS011;17400;52.392;9.750;2022-10-16T02:10:15;3.28;;;1.42;;
30635;SDS011;17400;52.392;9.750;2022-10-16T02:12:45;2.72;;;1.38;;
30635;SDS011;17400;52.392;9.750;2022-10-16T02:15:17;4.10;;;1.73;;
30635;SDS011;17400;52.392;9.750;2022-10-16T02:17:45;4.07;;;1.33;;
30635;SDS011;17400;52.392;9.750;2022-10-16T02:20:13;6.38;;;1.75;;
30635;SDS011;17400;52.392;9.750;2022-10-16T02:22:42;4.63;;;1.42;;
30635;SDS011;17400;52.392;9.750;2022-10-16T02:25:15;2.40;;;1.63;;
30635;SDS011;17400;52.392;9.750;2022-10-16T02:27:49;3.15;;;1.67;;
30635;SDS011;17400;52.392;9.750;2022-10-16T02:30:24;2.38;;;1.35;;
30635;SDS011;17400;52.392;9.750;2022-10-16T02:32:56;1.92;;;1.27;;
30635;SDS011;17400;52.392;9.750;2022-10-16T02:35:27;4.22;;;1.38;;
30635;SDS011;17400;52.392;9.750;2022-10-16T02:37:55;2.42;;;1.30;;
30635;SDS011;17400;52.392;9.750;2022-10-16T02:40:24;2.75;;;1.20;;
30635;SDS011;17400;52.392;9.750;2022-10-16T02:42:55;2.50;;;1.60;;
30635;SDS011;17400;52.392;9.750;2022-10-16T02:45:23;1.90;;;1.27;;
30635;SDS011;17400;52.392;9.750;2022-10-16T02:47:51;3.75;;;2.05;;
30635;SDS011;17400;52.392;9.750;2022-10-16T02:50:19;2.88;;;1.35;;
30635;SDS011;17400;52.392;9.750;2022-10-16T02:52:46;1.83;;;1.00;;
30635;SDS011;17400;52.392;9.750;2022-10-16T02:55:14;2.65;;;1.42;;
30635;SDS011;17400;52.392;9.750;2022-10-16T02:57:42;2.95;;;1.30;;
30635;SDS011;17400;52.392;9.750;2022-10-16T03:00:12;5.28;;;1.45;;
30635;SDS011;17400;52.392;9.750;2022-10-16T03:02:42;3.25;;;1.30;;
30635;SDS011;17400;52.392;9.750;2022-10-16T03:05:10;2.10;;;1.10;;
30635;SDS011;17400;52.392;9.750;2022-10-16T03:07:38;0.80;;;0.65;;
30635;SDS011;17400;52.392;9.750;2022-10-16T03:10:06;3.35;;;1.50;;
30635;SDS011;17400;52.392;9.750;2022-10-16T03:12:34;2.97;;;1.35;;
30635;SDS011;17400;52.392;9.750;2022-10-16T03:15:02;2.78;;;1.20;;
30635;SDS011;17400;52.392;9.750;2022-10-16T03:17:32;2.53;;;0.93;;
30635;SDS011;17400;52.392;9.750;2022-10-16T03:20:00;1.75;;;1.13;;
30635;SDS011;17400;52.392;9.750;2022-10-16T03:22:28;1.13;;;1.00;;
30635;SDS011;17400;52.392;9.750;2022-10-16T03:24:56;2.13;;;1.30;;
30635;SDS011;17400;52.392;9.750;2022-10-16T03:27:24;2.58;;;1.00;;
30635;SDS011;17400;52.392;9.750;2022-10-16T03:29:52;2.42;;;1.35;;
30635;SDS011;17400;52.392;9.750;2022-10-16T03:32:20;3.58;;;1.30;;
30635;SDS011;17400;52.392;9.750;2022-10-16T03:34:49;3.10;;;1.55;;
30635;SDS011;17400;52.392;9.750;2022-10-16T03:37:17;1.83;;;1.20;;
30635;SDS011;17400;52.392;9.750;2022-10-16T03:39:45;1.80;;;1.25;;
30635;SDS011;17400;52.392;9.750;2022-10-16T03:42:13;2.63;;;1.10;;
30635;SDS011;17400;52.392;9.750;2022-10-16T03:44:40;2.15;;;1.40;;
30635;SDS011;17400;52.392;9.750;2022-10-16T03:47:08;1.95;;;1.30;;
30635;SDS011;17400;52.392;9.750;2022-10-16T03:49:36;2.38;;;1.40;;
30635;SDS011;17400;52.392;9.750;2022-10-16T03:52:05;2.63;;;1.30;;
30635;SDS011;17400;52.392;9.750;2022-10-16T03:54:32;2.55;;;1.30;;
30635;SDS011;17400;52.392;9.750;2022-10-16T03:57:00;1.88;;;1.10;;
30635;SDS011;17400;52.392;9.750;2022-10-16T03:59:28;1.65;;;1.10;;
30635;SDS011;17400;52.392;9.750;2022-10-16T04:01:55;3.83;;;1.20;;
30635;SDS011;17400;52.392;9.750;2022-10-16T04:04:23;2.65;;;2.00;;
30635;SDS011;17400;52.392;9.750;2022-10-16T04:06:51;3.03;;;1.67;;
30635;SDS011;17400;52.392;9.750;2022-10-16T04:09:20;3.58;;;1.17;;
30635;SDS011;17400;52.392;9.750;2022-10-16T04:11:48;6.32;;;1.42;;
30635;SDS011;17400;52.392;9.750;2022-10-16T04:14:16;4.22;;;1.23;;
30635;SDS011;17400;52.392;9.750;2022-10-16T04:16:43;3.08;;;1.17;;
30635;SDS011;17400;52.392;9.750;2022-10-16T04:19:11;1.63;;;1.10;;
30635;SDS011;17400;52.392;9.750;2022-10-16T04:21:39;1.77;;;1.08;;
30635;SDS011;17400;52.392;9.750;2022-10-16T04:24:07;4.45;;;0.95;;
30635;SDS011;17400;52.392;9.750;2022-10-16T04:26:36;2.17;;;1.40;;
30635;SDS011;17400;52.392;9.750;2022-10-16T04:29:04;2.78;;;1.33;;
30635;SDS011;17400;52.392;9.750;2022-10-16T04:31:32;2.22;;;1.20;;
30635;SDS011;17400;52.392;9.750;2022-10-16T04:34:00;3.75;;;1.52;;
30635;SDS011;17400;52.392;9.750;2022-10-16T04:36:27;4.95;;;2.22;;
30635;SDS011;17400;52.392;9.750;2022-10-16T04:38:55;1.63;;;1.10;;
30635;SDS011;17400;52.392;9.750;2022-10-16T04:41:23;3.92;;;1.15;;
30635;SDS011;17400;52.392;9.750;2022-10-16T04:43:52;2.45;;;1.20;;
30635;SDS011;17400;52.392;9.750;2022-10-16T04:46:19;2.63;;;1.58;;
30635;SDS011;17400;52.392;9.750;2022-10-16T04:48:47;4.90;;;1.70;;
30635;SDS011;17400;52.392;9.750;2022-10-16T04:51:15;3.53;;;1.60;;
30635;SDS011;17400;52.392;9.750;2022-10-16T04:53:42;3.60;;;1.90;;
30635;SDS011;17400;52.392;9.750;2022-10-16T04:56:10;2.70;;;1.58;;
30635;SDS011;17400;52.392;9.750;2022-10-16T04:58:37;3.88;;;1.42;;
30635;SDS011;17400;52.392;9.750;2022-10-16T05:01:06;3.40;;;1.85;;
30635;SDS011;17400;52.392;9.750;2022-10-16T05:03:34;5.43;;;1.50;;
30635;SDS011;17400;52.392;9.750;2022-10-16T05:06:04;3.05;;;1.77;;
30635;SDS011;17400;52.392;9.750;2022-10-16T05:08:32;2.53;;;1.60;;
30635;SDS011;17400;52.392;9.750;2022-10-16T05:11:00;3.92;;;1.60;;
30635;SDS011;17400;52.392;9.750;2022-10-16T05:13:28;6.97;;;1.92;;
30635;SDS011;17400;52.392;9.750;2022-10-16T05:15:55;3.00;;;1.60;;
30635;SDS011;17400;52.392;9.750;2022-10-16T05:18:24;2.38;;;1.60;;
30635;SDS011;17400;52.392;9.750;2022-10-16T05:20:52;3.20;;;2.03;;
30635;SDS011;17400;52.392;9.750;2022-10-16T05:23:20;2.63;;;1.48;;
30635;SDS011;17400;52.392;9.750;2022-10-16T05:25:57;2.03;;;1.67;;
30635;SDS011;17400;52.392;9.750;2022-10-16T05:28:26;3.45;;;1.65;;
30635;SDS011;17400;52.392;9.750;2022-10-16T05:30:54;4.05;;;2.00;;
30635;SDS011;17400;52.392;9.750;2022-10-16T05:33:23;3.67;;;1.58;;
30635;SDS011;17400;52.392;9.750;2022-10-16T05:35:53;3.42;;;1.70;;
30635;SDS011;17400;52.392;9.750;2022-10-16T05:38:20;4.65;;;1.40;;
30635;SDS011;17400;52.392;9.750;2022-10-16T05:40:51;2.95;;;2.10;;
30635;SDS011;17400;52.392;9.750;2022-10-16T05:43:19;4.55;;;1.88;;
30635;SDS011;17400;52.392;9.750;2022-10-16T05:45:53;2.78;;;1.63;;
30635;SDS011;17400;52.392;9.750;2022-10-16T05:48:21;2.70;;;1.67;;
30635;SDS011;17400;52.392;9.750;2022-10-16T05:50:57;3.47;;;1.80;;
30635;SDS011;17400;52.392;9.750;2022-10-16T05:53:26;3.30;;;1.90;;
30635;SDS011;17400;52.392;9.750;2022-10-16T05:55:54;2.38;;;1.80;;
30635;SDS011;17400;52.392;9.750;2022-10-16T05:58:23;4.97;;;1.60;;
30635;SDS011;17400;52.392;9.750;2022-10-16T06:00:52;3.17;;;1.67;;
30635;SDS011;17400;52.392;9.750;2022-10-16T06:03:21;3.22;;;1.80;;
30635;SDS011;17400;52.392;9.750;2022-10-16T06:05:49;3.22;;;2.05;;
30635;SDS011;17400;52.392;9.750;2022-10-16T06:08:18;3.22;;;1.95;;
30635;SDS011;17400;52.392;9.750;2022-10-16T06:10:47;2.85;;;2.03;;
30635;SDS011;17400;52.392;9.750;2022-10-16T06:13:15;2.55;;;1.83;;
30635;SDS011;17400;52.392;9.750;2022-10-16T06:15:43;3.50;;;1.63;;
30635;SDS011;17400;52.392;9.750;2022-10-16T06:18:10;2.67;;;1.42;;
30635;SDS011;17400;52.392;9.750;2022-10-16T06:20:38;8.85;;;1.73;;
30635;SDS011;17400;52.392;9.750;2022-10-16T06:23:06;2.67;;;1.50;;
30635;SDS011;17400;52.392;9.750;2022-10-16T06:25:34;1.83;;;1.23;;
30635;SDS011;17400;52.392;9.750;2022-10-16T06:28:02;1.85;;;1.20;;
30635;SDS011;17400;52.392;9.750;2022-10-16T06:30:30;1.73;;;1.27;;
30635;SDS011;17400;52.392;9.750;2022-10-16T06:32:58;1.33;;;1.10;;
30635;SDS011;17400;52.392;9.750;2022-10-16T06:35:25;2.33;;;1.40;;
30635;SDS011;17400;52.392;9.750;2022-10-16T06:37:55;1.55;;;1.05;;
30635;SDS011;17400;52.392;9.750;2022-10-16T06:40:23;1.98;;;1.20;;
30635;SDS011;17400;52.392;9.750;2022-10-16T06:42:52;2.65;;;1.25;;
30635;SDS011;17400;52.392;9.750;2022-10-16T06:45:22;2.13;;;1.35;;
30635;SDS011;17400;52.392;9.750;2022-10-16T06:47:49;1.70;;;1.25;;
30635;SDS011;17400;52.392;9.750;2022-10-16T06:50:17;2.38;;;1.45;;
30635;SDS011;17400;52.392;9.750;2022-10-16T06:52:45;2.72;;;1.63;;
30635;SDS011;17400;52.392;9.750;2022-10-16T06:55:12;2.65;;;1.45;;
30635;SDS011;17400;52.392;9.750;2022-10-16T06:57:40;2.38;;;1.48;;
30635;SDS011;17400;52.392;9.750;2022-10-16T07:00:10;2.30;;;1.63;;
30635;SDS011;17400;52.392;9.750;2022-10-16T07:02:38;3.60;;;1.92;;
30635;SDS011;17400;52.392;9.750;2022-10-16T07:05:06;2.92;;;1.25;;
30635;SDS011;17400;52.392;9.750;2022-10-16T07:07:34;2.30;;;1.42;;
30635;SDS011;17400;52.392;9.750;2022-10-16T07:10:02;2.72;;;1.38;;
30635;SDS011;17400;52.392;9.750;2022-10-16T07:12:30;1.65;;;1.30;;
30635;SDS011;17400;52.392;9.750;2022-10-16T07:14:58;2.75;;;1.75;;
30635;SDS011;17400;52.392;9.750;2022-10-16T07:17:27;2.45;;;1.33;;
30635;SDS011;17400;52.392;9.750;2022-10-16T07:19:55;2.38;;;1.33;;
30635;SDS011;17400;52.392;9.750;2022-10-16T07:22:22;1.70;;;0.93;;
30635;SDS011;17400;52.392;9.750;2022-10-16T07:24:50;2.95;;;1.38;;
30635;SDS011;17400;52.392;9.750;2022-10-16T07:27:18;2.85;;;1.35;;
30635;SDS011;17400;52.392;9.750;2022-10-16T07:29:48;2.63;;;1.42;;
30635;SDS011;17400;52.392;9.750;2022-10-16T07:32:16;3.80;;;1.13;;
30635;SDS011;17400;52.392;9.750;2022-10-16T07:34:45;2.33;;;1.40;;
30635;SDS011;17400;52.392;9.750;2022-10-16T07:37:12;2.03;;;1.33;;
30635;SDS011;17400;52.392;9.750;2022-10-16T07:39:40;2.30;;;1.45;;
30635;SDS011;17400;52.392;9.750;2022-10-16T07:42:08;2.50;;;0.95;;
30635;SDS011;17400;52.392;9.750;2022-10-16T07:44:36;1.55;;;1.00;;
30635;SDS011;17400;52.392;9.750;2022-10-16T07:47:04;1.85;;;0.95;;
30635;SDS011;17400;52.392;9.750;2022-10-16T07:49:31;2.25;;;0.98;;
30635;SDS011;17400;52.392;9.750;2022-10-16T07:52:00;2.30;;;1.20;;
30635;SDS011;17400;52.392;9.750;2022-10-16T07:54:28;0.63;;;0.57;;
30635;SDS011;17400;52.392;9.750;2022-10-16T07:56:56;1.40;;;0.73;;
30635;SDS011;17400;52.392;9.750;2022-10-16T07:59:23;2.30;;;1.23;;
30635;SDS011;17400;52.392;9.750;2022-10-16T08:01:51;2.30;;;1.10;;
30635;SDS011;17400;52.392;9.750;2022-10-16T08:04:19;1.95;;;1.00;;
30635;SDS011;17400;52.392;9.750;2022-10-16T08:06:46;2.15;;;1.55;;
30635;SDS011;17400;52.392;9.750;2022-10-16T08:09:17;2.20;;;1.10;;
30635;SDS011;17400;52.392;9.750;2022-10-16T08:11:44;2.38;;;1.50;;
30635;SDS011;17400;52.392;9.750;2022-10-16T08:14:12;2.22;;;1.35;;
30635;SDS011;17400;52.392;9.750;2022-10-16T08:16:40;2.60;;;1.00;;
30635;SDS011;17400;52.392;9.750;2022-10-16T08:19:08;7.70;;;1.00;;
30635;SDS011;17400;52.392;9.750;2022-10-16T08:21:35;3.63;;;1.50;;
30635;SDS011;17400;52.392;9.750;2022-10-16T08:24:03;1.88;;;1.00;;
30635;SDS011;17400;52.392;9.750;2022-10-16T08:26:32;1.00;;;0.85;;
30635;SDS011;17400;52.392;9.750;2022-10-16T08:29:00;0.95;;;0.57;;
30635;SDS011;17400;52.392;9.750;2022-10-16T08:31:28;1.63;;;1.05;;
30635;SDS011;17400;52.392;9.750;2022-10-16T08:33:56;1.88;;;0.82;;
30635;SDS011;17400;52.392;9.750;2022-10-16T08:36:23;0.88;;;0.60;;
30635;SDS011;17400;52.392;9.750;2022-10-16T08:38:51;1.35;;;0.80;;
30635;SDS011;17400;52.392;9.750;2022-10-16T08:44:29;2.17;;;1.13;;
30635;SDS011;17400;52.392;9.750;2022-10-16T08:47:07;1.50;;;0.90;;
30635;SDS011;17400;52.392;9.750;2022-10-16T08:49:41;2.00;;;1.35;;
30635;SDS011;17400;52.392;9.750;2022-10-16T08:52:20;1.67;;;0.90;;
30635;SDS011;17400;52.392;9.750;2022-10-16T08:54:49;1.30;;;0.88;;
30635;SDS011;17400;52.392;9.750;2022-10-16T08:57:24;0.70;;;0.50;;
30635;SDS011;17400;52.392;9.750;2022-10-16T08:59:54;1.25;;;0.85;;
30635;SDS011;17400;52.392;9.750;2022-10-16T09:02:29;1.02;;;0.80;;
30635;SDS011;17400;52.392;9.750;2022-10-16T09:05:02;1.60;;;0.85;;
30635;SDS011;17400;52.392;9.750;2022-10-16T09:07:52;1.27;;;0.75;;
30635;SDS011;17400;52.392;9.750;2022-10-16T09:10:34;1.20;;;0.90;;
30635;SDS011;17400;52.392;9.750;2022-10-16T09:13:10;1.05;;;0.73;;
30635;SDS011;17400;52.392;9.750;2022-10-16T09:15:47;1.55;;;0.85;;
30635;SDS011;17400;52.392;9.750;2022-10-16T09:18:25;5.25;;;1.48;;
30635;SDS011;17400;52.392;9.750;2022-10-16T09:21:01;0.93;;;0.80;;
30635;SDS011;17400;52.392;9.750;2022-10-16T09:23:37;1.75;;;0.88;;
30635;SDS011;17400;52.392;9.750;2022-10-16T09:26:05;1.30;;;0.55;;
30635;SDS011;17400;52.392;9.750;2022-10-16T09:28:38;0.88;;;0.60;;
30635;SDS011;17400;52.392;9.750;2022-10-16T09:33:42;4.78;;;1.02;;
30635;SDS011;17400;52.392;9.750;2022-10-16T09:36:14;1.55;;;1.00;;
30635;SDS011;17400;52.392;9.750;2022-10-16T09:38:42;1.90;;;1.20;;
30635;SDS011;17400;52.392;9.750;2022-10-16T09:41:19;1.60;;;0.98;;
30635;SDS011;17400;52.392;9.750;2022-10-16T09:43:51;2.25;;;0.80;;
30635;SDS011;17400;52.392;9.750;2022-10-16T09:46:24;0.75;;;0.50;;
30635;SDS011;17400;52.392;9.750;2022-10-16T09:48:54;4.65;;;0.77;;
30635;SDS011;17400;52.392;9.750;2022-10-16T09:51:25;1.35;;;0.65;;
30635;SDS011;17400;52.392;9.750;2022-10-16T09:53:56;0.93;;;0.80;;
30635;SDS011;17400;52.392;9.750;2022-10-16T09:56:26;1.50;;;0.75;;
30635;SDS011;17400;52.392;9.750;2022-10-16T09:58:55;1.00;;;0.68;;
30635;SDS011;17400;52.392;9.750;2022-10-16T10:01:28;0.70;;;0.60;;
30635;SDS011;17400;52.392;9.750;2022-10-16T10:03:58;1.08;;;0.60;;
30635;SDS011;17400;52.392;9.750;2022-10-16T10:06:29;3.28;;;0.60;;
30635;SDS011;17400;52.392;9.750;2022-10-16T10:09:04;6.32;;;0.98;;
30635;SDS011;17400;52.392;9.750;2022-10-16T10:11:42;0.80;;;0.60;;
30635;SDS011;17400;52.392;9.750;2022-10-16T10:14:15;1.33;;;0.75;;
30635;SDS011;17400;52.392;9.750;2022-10-16T10:16:47;0.57;;;0.50;;
30635;SDS011;17400;52.392;9.750;2022-10-16T10:19:16;0.43;;;0.43;;
30635;SDS011;17400;52.392;9.750;2022-10-16T10:21:45;0.57;;;0.52;;
30635;SDS011;17400;52.392;9.750;2022-10-16T10:24:14;1.50;;;0.80;;
30635;SDS011;17400;52.392;9.750;2022-10-16T10:26:46;4.25;;;1.00;;
30635;SDS011;17400;52.392;9.750;2022-10-16T10:29:21;2.00;;;0.88;;
30635;SDS011;17400;52.392;9.750;2022-10-16T10:32:11;2.03;;;1.40;;
30635;SDS011;17400;52.392;9.750;2022-10-16T10:35:00;1.33;;;0.70;;
30635;SDS011;17400;52.392;9.750;2022-10-16T10:37:51;2.33;;;0.60;;
30635;SDS011;17400;52.392;9.750;2022-10-16T10:40:34;0.50;;;0.50;;
30635;SDS011;17400;52.392;9.750;2022-10-16T10:43:13;2.13;;;0.95;;
30635;SDS011;17400;52.392;9.750;2022-10-16T10:45:51;3.45;;;0.90;;
30635;SDS011;17400;52.392;9.750;2022-10-16T10:48:40;1.40;;;0.68;;
30635;SDS011;17400;52.392;9.750;2022-10-16T10:51:22;2.85;;;0.90;;
30635;SDS011;17400;52.392;9.750;2022-10-16T10:53:59;0.93;;;0.50;;
30635;SDS011;17400;52.392;9.750;2022-10-16T10:56:41;0.63;;;0.50;;
30635;SDS011;17400;52.392;9.750;2022-10-16T10:59:22;1.02;;;0.60;;
30635;SDS011;17400;52.392;9.750;2022-10-16T11:02:05;1.42;;;0.65;;
30635;SDS011;17400;52.392;9.750;2022-10-16T11:04:47;0.88;;;0.60;;
30635;SDS011;17400;52.392;9.750;2022-10-16T11:07:27;0.93;;;0.63;;
30635;SDS011;17400;52.392;9.750;2022-10-16T11:09:57;1.45;;;0.52;;
30635;SDS011;17400;52.392;9.750;2022-10-16T11:12:29;1.90;;;0.70;;
30635;SDS011;17400;52.392;9.750;2022-10-16T11:15:03;5.95;;;4.20;;
30635;SDS011;17400;52.392;9.750;2022-10-16T11:17:39;3.42;;;2.67;;
30635;SDS011;17400;52.392;9.750;2022-10-16T11:20:13;4.43;;;3.20;;
30635;SDS011;17400;52.392;9.750;2022-10-16T11:22:46;5.78;;;2.67;;
30635;SDS011;17400;52.392;9.750;2022-10-16T11:25:18;4.25;;;2.33;;
30635;SDS011;17400;52.392;9.750;2022-10-16T11:27:50;2.97;;;1.65;;
30635;SDS011;17400;52.392;9.750;2022-10-16T11:30:22;3.08;;;2.10;;
30635;SDS011;17400;52.392;9.750;2022-10-16T11:33:00;1.27;;;0.82;;
30635;SDS011;17400;52.392;9.750;2022-10-16T11:35:44;3.40;;;0.75;;
30635;SDS011;17400;52.392;9.750;2022-10-16T11:38:19;3.40;;;0.70;;
30635;SDS011;17400;52.392;9.750;2022-10-16T11:40:58;1.42;;;0.90;;
30635;SDS011;17400;52.392;9.750;2022-10-16T11:43:31;1.05;;;0.73;;
30635;SDS011;17400;52.392;9.750;2022-10-16T11:46:04;0.98;;;0.55;;
30635;SDS011;17400;52.392;9.750;2022-10-16T11:48:41;1.10;;;0.77;;
30635;SDS011;17400;52.392;9.750;2022-10-16T11:51:21;0.75;;;0.50;;
30635;SDS011;17400;52.392;9.750;2022-10-16T11:54:00;1.58;;;0.95;;
30635;SDS011;17400;52.392;9.750;2022-10-16T11:56:32;2.45;;;0.90;;
30635;SDS011;17400;52.392;9.750;2022-10-16T11:59:06;1.73;;;1.10;;
30635;SDS011;17400;52.392;9.750;2022-10-16T12:01:43;0.70;;;0.60;;
30635;SDS011;17400;52.392;9.750;2022-10-16T12:04:16;1.10;;;0.75;;
30635;SDS011;17400;52.392;9.750;2022-10-16T12:06:57;1.70;;;0.73;;
30635;SDS011;17400;52.392;9.750;2022-10-16T12:09:30;2.38;;;1.50;;
30635;SDS011;17400;52.392;9.750;2022-10-16T12:11:59;2.63;;;1.38;;
30635;SDS011;17400;52.392;9.750;2022-10-16T12:14:35;1.75;;;1.15;;
30635;SDS011;17400;52.392;9.750;2022-10-16T12:17:25;1.25;;;0.70;;
30635;SDS011;17400;52.392;9.750;2022-10-16T12:19:58;1.15;;;0.50;;
30635;SDS011;17400;52.392;9.750;2022-10-16T12:22:29;1.70;;;0.98;;
30635;SDS011;17400;52.392;9.750;2022-10-16T12:25:04;1.88;;;0.73;;
30635;SDS011;17400;52.392;9.750;2022-10-16T12:27:33;4.85;;;1.92;;
30635;SDS011;17400;52.392;9.750;2022-10-16T12:30:05;2.70;;;1.45;;
30635;SDS011;17400;52.392;9.750;2022-10-16T12:32:37;5.28;;;2.33;;
30635;SDS011;17400;52.392;9.750;2022-10-16T12:35:21;1.77;;;1.20;;
30635;SDS011;17400;52.392;9.750;2022-10-16T12:38:07;1.05;;;0.35;;
30635;SDS011;17400;52.392;9.750;2022-10-16T12:40:54;3.65;;;1.63;;
30635;SDS011;17400;52.392;9.750;2022-10-16T12:43:38;2.65;;;1.15;;
30635;SDS011;17400;52.392;9.750;2022-10-16T12:46:44;2.20;;;0.85;;
30635;SDS011;17400;52.392;9.750;2022-10-16T12:49:31;0.63;;;0.40;;
30635;SDS011;17400;52.392;9.750;2022-10-16T12:52:29;3.35;;;0.70;;
30635;SDS011;17400;52.392;9.750;2022-10-16T12:55:18;1.20;;;0.30;;
30635;SDS011;17400;52.392;9.750;2022-10-16T12:58:09;1.25;;;0.63;;
30635;SDS011;17400;52.392;9.750;2022-10-16T13:01:20;3.42;;;0.75;;
30635;SDS011;17400;52.392;9.750;2022-10-16T13:04:29;3.60;;;0.82;;
30635;SDS011;17400;52.392;9.750;2022-10-16T13:07:15;1.40;;;0.50;;
30635;SDS011;17400;52.392;9.750;2022-10-16T13:09:57;3.00;;;0.80;;
30635;SDS011;17400;52.392;9.750;2022-10-16T13:15:33;3.15;;;0.93;;
30635;SDS011;17400;52.392;9.750;2022-10-16T13:18:11;0.88;;;0.50;;
30635;SDS011;17400;52.392;9.750;2022-10-16T13:20:51;2.05;;;0.80;;
30635;SDS011;17400;52.392;9.750;2022-10-16T13:23:36;1.52;;;0.57;;
30635;SDS011;17400;52.392;9.750;2022-10-16T13:26:13;0.95;;;0.82;;
30635;SDS011;17400;52.392;9.750;2022-10-16T13:28:51;1.50;;;0.55;;
30635;SDS011;17400;52.392;9.750;2022-10-16T13:31:20;0.65;;;0.50;;
30635;SDS011;17400;52.392;9.750;2022-10-16T13:33:50;1.33;;;0.30;;
30635;SDS011;17400;52.392;9.750;2022-10-16T13:36:21;0.55;;;0.30;;
30635;SDS011;17400;52.392;9.750;2022-10-16T13:38:59;0.95;;;0.40;;
30635;SDS011;17400;52.392;9.750;2022-10-16T13:41:32;1.52;;;0.60;;
30635;SDS011;17400;52.392;9.750;2022-10-16T13:44:01;0.77;;;0.40;;
30635;SDS011;17400;52.392;9.750;2022-10-16T13:46:28;2.15;;;0.63;;
30635;SDS011;17400;52.392;9.750;2022-10-16T13:49:01;2.30;;;0.80;;
30635;SDS011;17400;52.392;9.750;2022-10-16T13:51:30;1.73;;;0.77;;
30635;SDS011;17400;52.392;9.750;2022-10-16T13:53:59;0.60;;;0.50;;
30635;SDS011;17400;52.392;9.750;2022-10-16T13:56:28;1.33;;;0.70;;
30635;SDS011;17400;52.392;9.750;2022-10-16T13:58:57;2.13;;;0.77;;
30635;SDS011;17400;52.392;9.750;2022-10-16T14:01:28;2.30;;;0.88;;
30635;SDS011;17400;52.392;9.750;2022-10-16T14:04:02;1.08;;;0.30;;
30635;SDS011;17400;52.392;9.750;2022-10-16T14:06:32;1.52;;;0.63;;
30635;SDS011;17400;52.392;9.750;2022-10-16T14:09:01;1.58;;;0.82;;
30635;SDS011;17400;52.392;9.750;2022-10-16T14:11:36;1.00;;;0.47;;
30635;SDS011;17400;52.392;9.750;2022-10-16T14:14:11;2.47;;;0.60;;
30635;SDS011;17400;52.392;9.750;2022-10-16T14:16:41;0.60;;;0.50;;
30635;SDS011;17400;52.392;9.750;2022-10-16T14:19:12;1.48;;;0.68;;
30635;SDS011;17400;52.392;9.750;2022-10-16T14:21:45;1.60;;;0.60;;
30635;SDS011;17400;52.392;9.750;2022-10-16T14:24:13;1.00;;;0.57;;
30635;SDS011;17400;52.392;9.750;2022-10-16T14:26:49;7.57;;;5.47;;
30635;SDS011;17400;52.392;9.750;2022-10-16T14:29:18;9.02;;;5.13;;
30635;SDS011;17400;52.392;9.750;2022-10-16T14:31:55;12.02;;;8.38;;
30635;SDS011;17400;52.392;9.750;2022-10-16T14:34:25;8.30;;;6.13;;
30635;SDS011;17400;52.392;9.750;2022-10-16T14:36:55;4.03;;;2.78;;
30635;SDS011;17400;52.392;9.750;2022-10-16T14:39:26;2.60;;;1.70;;
30635;SDS011;17400;52.392;9.750;2022-10-16T14:41:56;2.30;;;1.13;;
30635;SDS011;17400;52.392;9.750;2022-10-16T14:44:27;2.55;;;0.70;;
30635;SDS011;17400;52.392;9.750;2022-10-16T14:47:05;0.60;;;0.60;;
30635;SDS011;17400;52.392;9.750;2022-10-16T14:49:35;6.85;;;2.85;;
30635;SDS011;17400;52.392;9.750;2022-10-16T14:52:07;3.75;;;2.58;;
30635;SDS011;17400;52.392;9.750;2022-10-16T14:54:37;3.28;;;1.77;;
30635;SDS011;17400;52.392;9.750;2022-10-16T14:57:05;1.00;;;0.73;;
30635;SDS011;17400;52.392;9.750;2022-10-16T14:59:44;1.52;;;0.70;;
30635;SDS011;17400;52.392;9.750;2022-10-16T15:02:18;2.45;;;0.95;;
30635;SDS011;17400;52.392;9.750;2022-10-16T15:04:50;3.38;;;1.10;;
30635;SDS011;17400;52.392;9.750;2022-10-16T15:07:18;2.30;;;0.60;;
30635;SDS011;17400;52.392;9.750;2022-10-16T15:09:46;1.27;;;0.75;;
30635;SDS011;17400;52.392;9.750;2022-10-16T15:12:15;2.80;;;0.98;;
30635;SDS011;17400;52.392;9.750;2022-10-16T15:14:44;0.95;;;0.57;;
30635;SDS011;17400;52.392;9.750;2022-10-16T15:17:12;1.50;;;0.75;;
30635;SDS011;17400;52.392;9.750;2022-10-16T15:19:46;1.30;;;0.70;;
30635;SDS011;17400;52.392;9.750;2022-10-16T15:22:15;2.72;;;0.68;;
30635;SDS011;17400;52.392;9.750;2022-10-16T15:24:47;2.53;;;0.77;;